sensor_id;sensor_type;location;lat;lon;timestamp;pressure;altitude;pressure_sealevel;temperature;humidity
27643;BME280;15053;48.618;10.024;2023-02-02T00:01:54;94683.53;;;3.57;87.81
27643;BME280;15053;48.618;10.024;2023-02-02T00:04:32;94673.00;;;3.59;88.21
27643;BME280;15053;48.618;10.024;2023-02-02T00:07:00;94692.81;;;3.58;88.22
27643;BME280;15053;48.618;10.024;2023-02-02T00:09:30;94687.66;;;3.58;87.90
27643;BME280;15053;48.618;10.024;2023-02-02T00:11:58;94676.38;;;3.60;88.08
27643;BME280;15053;48.618;10.024;2023-02-02T00:14:24;94690.25;;;3.58;87.29
27643;BME280;15053;48.618;10.024;2023-02-02T00:16:56;94686.09;;;3.57;87.26
27643;BME280;15053;48.618;10.024;2023-02-02T00:19:25;94689.25;;;3.60;87.21
27643;BME280;15053;48.618;10.024;2023-02-02T00:21:53;94684.09;;;3.60;87.44
27643;BME280;15053;48.618;10.024;2023-02-02T00:24:20;94676.91;;;3.62;86.93
27643;BME280;15053;48.618;10.024;2023-02-02T00:26:50;94701.88;;;3.61;86.76
27643;BME280;15053;48.618;10.024;2023-02-02T00:29:20;94665.34;;;3.64;86.10
27643;BME280;15053;48.618;10.024;2023-02-02T00:31:47;94676.19;;;3.66;86.15
27643;BME280;15053;48.618;10.024;2023-02-02T00:34:14;94668.25;;;3.68;86.38
27643;BME280;15053;48.618;10.024;2023-02-02T00:36:42;94678.56;;;3.68;86.29
27643;BME280;15053;48.618;10.024;2023-02-02T00:39:10;94683.25;;;3.71;86.38
27643;BME280;15053;48.618;10.024;2023-02-02T00:41:39;94662.72;;;3.76;85.71
27643;BME280;15053;48.618;10.024;2023-02-02T00:44:06;94664.81;;;3.79;85.82
27643;BME280;15053;48.618;10.024;2023-02-02T00:46:51;94673.31;;;3.79;85.79
27643;BME280;15053;48.618;10.024;2023-02-02T00:49:18;94670.50;;;3.81;86.24
27643;BME280;15053;48.618;10.024;2023-02-02T00:51:44;94671.84;;;3.83;85.63
27643;BME280;15053;48.618;10.024;2023-02-02T00:54:11;94673.16;;;3.86;85.79
27643;BME280;15053;48.618;10.024;2023-02-02T00:56:40;94670.59;;;3.86;85.92
27643;BME280;15053;48.618;10.024;2023-02-02T00:59:07;94667.78;;;3.87;85.17
27643;BME280;15053;48.618;10.024;2023-02-02T01:01:34;94670.13;;;3.89;85.12
27643;BME280;15053;48.618;10.024;2023-02-02T01:04:00;94669.13;;;3.90;85.66
27643;BME280;15053;48.618;10.024;2023-02-02T01:06:27;94678.16;;;3.92;85.44
27643;BME280;15053;48.618;10.024;2023-02-02T01:08:53;94665.22;;;3.87;85.27
27643;BME280;15053;48.618;10.024;2023-02-02T01:11:20;94670.44;;;3.92;85.58
27643;BME280;15053;48.618;10.024;2023-02-02T01:13:46;94673.25;;;3.91;85.55
27643;BME280;15053;48.618;10.024;2023-02-02T01:16:13;94666.53;;;3.90;85.54
27643;BME280;15053;48.618;10.024;2023-02-02T01:18:39;94681.50;;;3.93;85.30
27643;BME280;15053;48.618;10.024;2023-02-02T01:21:08;94661.94;;;3.92;85.10
27643;BME280;15053;48.618;10.024;2023-02-02T01:23:36;94665.03;;;3.94;85.49
27643;BME280;15053;48.618;10.024;2023-02-02T01:26:06;94661.47;;;3.95;85.24
27643;BME280;15053;48.618;10.024;2023-02-02T01:28:33;94662.47;;;3.94;85.72
27643;BME280;15053;48.618;10.024;2023-02-02T01:31:06;94652.69;;;3.96;86.23
27643;BME280;15053;48.618;10.024;2023-02-02T01:33:33;94650.84;;;3.91;85.83
27643;BME280;15053;48.618;10.024;2023-02-02T01:36:06;94682.16;;;4.00;85.16
27643;BME280;15053;48.618;10.024;2023-02-02T01:38:33;94647.53;;;3.96;85.51
27643;BME280;15053;48.618;10.024;2023-02-02T01:41:00;94662.06;;;4.02;85.01
27643;BME280;15053;48.618;10.024;2023-02-02T01:43:51;94653.34;;;4.03;85.19
27643;BME280;15053;48.618;10.024;2023-02-02T01:46:37;94654.34;;;4.02;85.35
27643;BME280;15053;48.618;10.024;2023-02-02T01:49:12;94654.59;;;4.00;85.85
27643;BME280;15053;48.618;10.024;2023-02-02T01:51:53;94669.25;;;4.00;85.79
27643;BME280;15053;48.618;10.024;2023-02-02T01:54:39;94645.81;;;4.01;85.25
27643;BME280;15053;48.618;10.024;2023-02-02T01:59:54;94650.69;;;3.98;86.60
27643;BME280;15053;48.618;10.024;2023-02-02T02:02:24;94669.72;;;3.97;85.78
27643;BME280;15053;48.618;10.024;2023-02-02T02:04:51;94639.81;;;3.96;85.78
27643;BME280;15053;48.618;10.024;2023-02-02T02:07:17;94646.28;;;3.98;85.83
27643;BME280;15053;48.618;10.024;2023-02-02T02:09:44;94675.41;;;3.99;85.91
27643;BME280;15053;48.618;10.024;2023-02-02T02:12:11;94654.59;;;4.00;86.20
27643;BME280;15053;48.618;10.024;2023-02-02T02:14:42;94686.75;;;3.98;86.20
27643;BME280;15053;48.618;10.024;2023-02-02T02:17:39;94663.47;;;3.93;87.55
27643;BME280;15053;48.618;10.024;2023-02-02T02:20:31;94665.97;;;3.88;87.76
27643;BME280;15053;48.618;10.024;2023-02-02T02:32:38;94659.22;;;3.82;89.07
27643;BME280;15053;48.618;10.024;2023-02-02T02:35:30;94640.38;;;3.81;90.13
27643;BME280;15053;48.618;10.024;2023-02-02T02:38:15;94656.06;;;3.80;90.24
27643;BME280;15053;48.618;10.024;2023-02-02T02:40:50;94701.09;;;3.77;89.98
27643;BME280;15053;48.618;10.024;2023-02-02T02:43:23;94646.00;;;3.78;90.35
27643;BME280;15053;48.618;10.024;2023-02-02T02:45:53;94666.94;;;3.82;90.79
27643;BME280;15053;48.618;10.024;2023-02-02T02:48:21;94660.53;;;3.84;90.82
27643;BME280;15053;48.618;10.024;2023-02-02T02:50:48;94660.53;;;3.84;90.91
27643;BME280;15053;48.618;10.024;2023-02-02T02:53:19;94671.44;;;3.91;90.52
27643;BME280;15053;48.618;10.024;2023-02-02T02:59:04;94674.88;;;3.97;89.71
27643;BME280;15053;48.618;10.024;2023-02-02T03:01:50;94656.59;;;3.98;89.92
27643;BME280;15053;48.618;10.024;2023-02-02T03:07:00;94652.88;;;4.06;89.53
27643;BME280;15053;48.618;10.024;2023-02-02T03:09:32;94649.25;;;4.07;89.31
27643;BME280;15053;48.618;10.024;2023-02-02T03:12:01;94637.63;;;4.04;89.48
27643;BME280;15053;48.618;10.024;2023-02-02T03:14:27;94684.78;;;4.05;89.36
27643;BME280;15053;48.618;10.024;2023-02-02T03:16:54;94662.13;;;4.07;89.72
27643;BME280;15053;48.618;10.024;2023-02-02T03:19:20;94668.06;;;4.07;90.10
27643;BME280;15053;48.618;10.024;2023-02-02T03:21:47;94669.97;;;4.12;89.82
27643;BME280;15053;48.618;10.024;2023-02-02T03:24:13;94670.97;;;4.11;88.87
27643;BME280;15053;48.618;10.024;2023-02-02T03:26:40;94665.81;;;4.11;89.76
27643;BME280;15053;48.618;10.024;2023-02-02T03:29:06;94689.72;;;4.06;89.79
27643;BME280;15053;48.618;10.024;2023-02-02T03:31:33;94658.31;;;4.09;89.58
27643;BME280;15053;48.618;10.024;2023-02-02T03:33:59;94647.72;;;4.06;90.00
27643;BME280;15053;48.618;10.024;2023-02-02T03:36:26;94654.41;;;4.07;90.21
27643;BME280;15053;48.618;10.024;2023-02-02T03:38:53;94643.03;;;4.03;90.09
27643;BME280;15053;48.618;10.024;2023-02-02T03:41:19;94653.66;;;4.06;89.83
27643;BME280;15053;48.618;10.024;2023-02-02T03:43:46;94643.97;;;3.97;90.13
27643;BME280;15053;48.618;10.024;2023-02-02T03:46:12;94657.16;;;4.00;90.31
27643;BME280;15053;48.618;10.024;2023-02-02T03:48:38;94677.53;;;4.02;91.22
27643;BME280;15053;48.618;10.024;2023-02-02T03:51:07;94654.28;;;3.97;91.71
27643;BME280;15053;48.618;10.024;2023-02-02T03:53:34;94677.84;;;3.89;92.49
27643;BME280;15053;48.618;10.024;2023-02-02T03:56:00;94676.34;;;3.93;92.39
27643;BME280;15053;48.618;10.024;2023-02-02T03:58:27;94679.41;;;3.90;93.12
27643;BME280;15053;48.618;10.024;2023-02-02T04:00:58;94678.31;;;3.86;92.79
27643;BME280;15053;48.618;10.024;2023-02-02T04:03:27;94685.97;;;3.81;93.56
27643;BME280;15053;48.618;10.024;2023-02-02T04:05:53;94714.53;;;3.79;93.69
27643;BME280;15053;48.618;10.024;2023-02-02T04:08:20;94695.16;;;3.77;94.35
27643;BME280;15053;48.618;10.024;2023-02-02T04:10:46;94687.91;;;3.74;94.22
27643;BME280;15053;48.618;10.024;2023-02-02T04:13:13;94680.41;;;3.72;94.59
27643;BME280;15053;48.618;10.024;2023-02-02T04:15:39;94685.44;;;3.79;94.88
27643;BME280;15053;48.618;10.024;2023-02-02T04:18:05;94672.44;;;3.74;94.86
27643;BME280;15053;48.618;10.024;2023-02-02T04:20:32;94699.84;;;3.80;94.87
27643;BME280;15053;48.618;10.024;2023-02-02T04:22:58;94678.78;;;3.83;94.62
27643;BME280;15053;48.618;10.024;2023-02-02T04:25:25;94688.06;;;3.84;94.39
27643;BME280;15053;48.618;10.024;2023-02-02T04:27:52;94695.56;;;3.85;94.96
27643;BME280;15053;48.618;10.024;2023-02-02T04:30:19;94690.19;;;3.87;94.50
27643;BME280;15053;48.618;10.024;2023-02-02T04:32:45;94702.59;;;3.90;94.30
27643;BME280;15053;48.618;10.024;2023-02-02T04:35:12;94702.91;;;3.93;94.98
27643;BME280;15053;48.618;10.024;2023-02-02T04:37:38;94708.06;;;3.93;93.94
27643;BME280;15053;48.618;10.024;2023-02-02T04:40:05;94697.53;;;3.95;93.85
27643;BME280;15053;48.618;10.024;2023-02-02T04:42:31;94686.75;;;3.98;93.34
27643;BME280;15053;48.618;10.024;2023-02-02T04:45:00;94700.66;;;3.97;93.34
27643;BME280;15053;48.618;10.024;2023-02-02T04:47:26;94706.81;;;3.96;93.07
27643;BME280;15053;48.618;10.024;2023-02-02T04:49:53;94713.00;;;3.95;93.02
27643;BME280;15053;48.618;10.024;2023-02-02T04:52:19;94704.41;;;3.89;93.98
27643;BME280;15053;48.618;10.024;2023-02-02T04:54:45;94704.41;;;3.89;94.10
27643;BME280;15053;48.618;10.024;2023-02-02T04:57:12;94705.66;;;3.87;94.65
27643;BME280;15053;48.618;10.024;2023-02-02T04:59:38;94710.34;;;3.90;94.35
27643;BME280;15053;48.618;10.024;2023-02-02T05:02:07;94706.19;;;3.89;94.68
27643;BME280;15053;48.618;10.024;2023-02-02T05:04:34;94692.19;;;3.85;95.14
27643;BME280;15053;48.618;10.024;2023-02-02T05:07:01;94694.00;;;3.84;95.51
27643;BME280;15053;48.618;10.024;2023-02-02T05:09:28;94710.47;;;3.83;95.43
27643;BME280;15053;48.618;10.024;2023-02-02T05:11:54;94691.13;;;3.81;95.70
27643;BME280;15053;48.618;10.024;2023-02-02T05:14:21;94701.41;;;3.81;96.08
27643;BME280;15053;48.618;10.024;2023-02-02T05:16:47;94694.47;;;3.81;95.66
27643;BME280;15053;48.618;10.024;2023-02-02T05:19:15;94696.28;;;3.81;95.68
27643;BME280;15053;48.618;10.024;2023-02-02T05:21:43;94716.56;;;3.77;95.97
27643;BME280;15053;48.618;10.024;2023-02-02T05:24:16;94694.22;;;3.83;96.24
27643;BME280;15053;48.618;10.024;2023-02-02T05:26:43;94708.16;;;3.82;95.68
27643;BME280;15053;48.618;10.024;2023-02-02T05:29:09;94722.56;;;3.83;95.62
27643;BME280;15053;48.618;10.024;2023-02-02T05:31:35;94723.34;;;3.83;95.35
27643;BME280;15053;48.618;10.024;2023-02-02T05:34:02;94745.22;;;3.81;94.86
27643;BME280;15053;48.618;10.024;2023-02-02T05:36:29;94708.59;;;3.79;95.20
27643;BME280;15053;48.618;10.024;2023-02-02T05:38:55;94703.91;;;3.76;95.72
27643;BME280;15053;48.618;10.024;2023-02-02T05:41:22;94697.44;;;3.73;95.27
27643;BME280;15053;48.618;10.024;2023-02-02T05:43:48;94714.44;;;3.74;95.98
27643;BME280;15053;48.618;10.024;2023-02-02T05:46:14;94721.69;;;3.77;95.76
27643;BME280;15053;48.618;10.024;2023-02-02T05:48:41;94724.59;;;3.81;95.42
27643;BME280;15053;48.618;10.024;2023-02-02T05:51:23;94733.91;;;3.82;95.13
27643;BME280;15053;48.618;10.024;2023-02-02T05:53:50;94727.19;;;3.81;96.08
27643;BME280;15053;48.618;10.024;2023-02-02T05:56:17;94727.97;;;3.81;95.36
27643;BME280;15053;48.618;10.024;2023-02-02T05:58:43;94730.53;;;3.81;95.86
27643;BME280;15053;48.618;10.024;2023-02-02T06:01:12;94731.31;;;3.82;95.41
27643;BME280;15053;48.618;10.024;2023-02-02T06:03:39;94729.22;;;3.79;95.28
27643;BME280;15053;48.618;10.024;2023-02-02T06:06:05;94739.81;;;3.82;95.49
27643;BME280;15053;48.618;10.024;2023-02-02T06:08:33;94734.66;;;3.82;95.96
27643;BME280;15053;48.618;10.024;2023-02-02T06:10:59;94746.28;;;3.85;96.10
27643;BME280;15053;48.618;10.024;2023-02-02T06:13:25;94724.13;;;3.84;95.80
27643;BME280;15053;48.618;10.024;2023-02-02T06:15:52;94738.34;;;3.86;95.64
27643;BME280;15053;48.618;10.024;2023-02-02T06:18:19;94748.41;;;3.88;95.99
27643;BME280;15053;48.618;10.024;2023-02-02T06:20:45;94743.72;;;3.85;95.94
27643;BME280;15053;48.618;10.024;2023-02-02T06:23:12;94755.59;;;3.86;95.20
27643;BME280;15053;48.618;10.024;2023-02-02T06:25:39;94737.81;;;3.84;95.52
27643;BME280;15053;48.618;10.024;2023-02-02T06:28:05;94738.56;;;3.85;96.08
27643;BME280;15053;48.618;10.024;2023-02-02T06:30:32;94736.47;;;3.82;96.08
27643;BME280;15053;48.618;10.024;2023-02-02T06:32:59;94740.59;;;3.83;95.83
27643;BME280;15053;48.618;10.024;2023-02-02T06:35:26;94734.44;;;3.84;96.10
27643;BME280;15053;48.618;10.024;2023-02-02T06:37:52;94732.88;;;3.83;96.06
27643;BME280;15053;48.618;10.024;2023-02-02T06:40:19;94737.25;;;3.82;95.86
27643;BME280;15053;48.618;10.024;2023-02-02T06:42:46;94747.31;;;3.84;96.12
27643;BME280;15053;48.618;10.024;2023-02-02T06:45:12;94752.22;;;3.85;96.20
27643;BME280;15053;48.618;10.024;2023-02-02T06:47:39;94752.00;;;3.87;95.30
27643;BME280;15053;48.618;10.024;2023-02-02T06:50:06;94753.09;;;3.91;96.03
27643;BME280;15053;48.618;10.024;2023-02-02T06:52:32;94750.78;;;3.89;95.72
27643;BME280;15053;48.618;10.024;2023-02-02T06:54:58;94749.28;;;3.93;95.55
27643;BME280;15053;48.618;10.024;2023-02-02T06:57:25;94754.13;;;3.90;94.90
27643;BME280;15053;48.618;10.024;2023-02-02T06:59:51;94763.72;;;3.94;94.74
27643;BME280;15053;48.618;10.024;2023-02-02T07:02:18;94761.69;;;3.96;94.76
27643;BME280;15053;48.618;10.024;2023-02-02T07:04:44;94772.25;;;3.95;94.80
27643;BME280;15053;48.618;10.024;2023-02-02T07:07:11;94762.72;;;3.95;94.72
27643;BME280;15053;48.618;10.024;2023-02-02T07:09:37;94764.50;;;3.95;95.33
27643;BME280;15053;48.618;10.024;2023-02-02T07:12:04;94760.91;;;3.96;95.00
27643;BME280;15053;48.618;10.024;2023-02-02T07:14:30;94766.06;;;3.96;94.90
27643;BME280;15053;48.618;10.024;2023-02-02T07:16:57;94752.16;;;3.97;95.34
27643;BME280;15053;48.618;10.024;2023-02-02T07:19:23;94757.31;;;3.97;95.66
27643;BME280;15053;48.618;10.024;2023-02-02T07:21:50;94768.97;;;3.99;95.10
27643;BME280;15053;48.618;10.024;2023-02-02T07:24:16;94756.31;;;3.98;95.15
27643;BME280;15053;48.618;10.024;2023-02-02T07:26:43;94754.75;;;3.97;95.33
27643;BME280;15053;48.618;10.024;2023-02-02T07:29:12;94758.13;;;3.97;95.13
27643;BME280;15053;48.618;10.024;2023-02-02T07:31:42;94749.84;;;3.95;95.77
27643;BME280;15053;48.618;10.024;2023-02-02T07:34:08;94755.75;;;3.96;95.64
27643;BME280;15053;48.618;10.024;2023-02-02T07:36:35;94767.88;;;3.95;96.01
27643;BME280;15053;48.618;10.024;2023-02-02T07:39:02;94765.06;;;3.97;95.95
27643;BME280;15053;48.618;10.024;2023-02-02T07:41:30;94778.72;;;3.97;96.16
27643;BME280;15053;48.618;10.024;2023-02-02T07:43:57;94776.16;;;3.97;95.71
27643;BME280;15053;48.618;10.024;2023-02-02T07:46:23;94765.59;;;3.99;95.99
27643;BME280;15053;48.618;10.024;2023-02-02T07:48:53;94763.25;;;3.97;96.38
27643;BME280;15053;48.618;10.024;2023-02-02T07:51:20;94790.03;;;3.96;96.11
27643;BME280;15053;48.618;10.024;2023-02-02T07:53:49;94762.94;;;3.94;96.32
27643;BME280;15053;48.618;10.024;2023-02-02T07:56:18;94783.09;;;3.97;95.67
27643;BME280;15053;48.618;10.024;2023-02-02T07:58:45;94771.78;;;3.98;96.08
27643;BME280;15053;48.618;10.024;2023-02-02T08:01:13;94756.31;;;3.98;96.83
27643;BME280;15053;48.618;10.024;2023-02-02T08:03:40;94786.22;;;3.99;96.75
27643;BME280;15053;48.618;10.024;2023-02-02T08:06:11;94763.81;;;3.99;95.96
27643;BME280;15053;48.618;10.024;2023-02-02T08:08:38;94750.47;;;4.02;96.99
27643;BME280;15053;48.618;10.024;2023-02-02T08:11:08;94786.84;;;4.06;96.33
27643;BME280;15053;48.618;10.024;2023-02-02T08:13:35;94752.25;;;4.02;96.44
27643;BME280;15053;48.618;10.024;2023-02-02T08:16:01;94757.19;;;4.03;96.68
27643;BME280;15053;48.618;10.024;2023-02-02T08:18:28;94767.56;;;4.08;96.50
27643;BME280;15053;48.618;10.024;2023-02-02T08:20:58;94773.50;;;4.09;96.74
27643;BME280;15053;48.618;10.024;2023-02-02T08:23:25;94759.66;;;4.15;96.11
27643;BME280;15053;48.618;10.024;2023-02-02T08:25:53;94760.78;;;4.19;96.33
27643;BME280;15053;48.618;10.024;2023-02-02T08:28:19;94764.44;;;4.23;95.97
27643;BME280;15053;48.618;10.024;2023-02-02T08:30:46;94766.53;;;4.26;95.60
27643;BME280;15053;48.618;10.024;2023-02-02T08:33:13;94754.22;;;4.28;95.62
27643;BME280;15053;48.618;10.024;2023-02-02T08:35:43;94780.28;;;4.32;96.46
27643;BME280;15053;48.618;10.024;2023-02-02T08:38:09;94784.19;;;4.34;96.00
27643;BME280;15053;48.618;10.024;2023-02-02T08:40:36;94789.69;;;4.38;95.65
27643;BME280;15053;48.618;10.024;2023-02-02T08:43:03;94793.09;;;4.43;95.41
27643;BME280;15053;48.618;10.024;2023-02-02T08:45:30;94782.31;;;4.46;95.17
27643;BME280;15053;48.618;10.024;2023-02-02T08:48:16;94780.59;;;4.52;94.57
27643;BME280;15053;48.618;10.024;2023-02-02T08:50:51;94780.94;;;4.55;94.58
27643;BME280;15053;48.618;10.024;2023-02-02T08:53:17;94792.88;;;4.61;93.65
27643;BME280;15053;48.618;10.024;2023-02-02T08:55:44;94794.50;;;4.67;94.15
27643;BME280;15053;48.618;10.024;2023-02-02T08:58:10;94804.66;;;4.74;93.73
27643;BME280;15053;48.618;10.024;2023-02-02T09:00:37;94826.69;;;4.82;92.95
27643;BME280;15053;48.618;10.024;2023-02-02T09:03:03;94816.63;;;4.80;91.88
27643;BME280;15053;48.618;10.024;2023-02-02T09:05:30;94801.84;;;4.75;91.74
27643;BME280;15053;48.618;10.024;2023-02-02T09:07:56;94810.13;;;4.78;92.17
27643;BME280;15053;48.618;10.024;2023-02-02T09:10:23;94831.25;;;4.74;91.14
27643;BME280;15053;48.618;10.024;2023-02-02T09:12:49;94820.94;;;4.74;91.20
27643;BME280;15053;48.618;10.024;2023-02-02T09:15:16;94814.19;;;4.73;91.59
27643;BME280;15053;48.618;10.024;2023-02-02T09:17:42;94819.88;;;4.75;90.30
27643;BME280;15053;48.618;10.024;2023-02-02T09:20:09;94795.06;;;4.69;90.52
27643;BME280;15053;48.618;10.024;2023-02-02T09:22:35;94811.69;;;4.78;89.49
27643;BME280;15053;48.618;10.024;2023-02-02T09:25:02;94824.84;;;4.77;90.15
27643;BME280;15053;48.618;10.024;2023-02-02T09:27:28;94821.47;;;4.76;89.57
27643;BME280;15053;48.618;10.024;2023-02-02T09:29:55;94829.19;;;4.76;89.59
27643;BME280;15053;48.618;10.024;2023-02-02T09:32:21;94828.19;;;4.78;90.17
27643;BME280;15053;48.618;10.024;2023-02-02T09:34:48;94833.56;;;4.76;90.73
27643;BME280;15053;48.618;10.024;2023-02-02T09:37:14;94814.19;;;4.73;91.02
27643;BME280;15053;48.618;10.024;2023-02-02T09:39:40;94830.94;;;4.71;90.31
27643;BME280;15053;48.618;10.024;2023-02-02T09:42:25;94820.06;;;4.69;90.29
27643;BME280;15053;48.618;10.024;2023-02-02T09:47:52;94816.38;;;4.65;90.91
27643;BME280;15053;48.618;10.024;2023-02-02T09:50:27;94842.09;;;4.60;91.89
27643;BME280;15053;48.618;10.024;2023-02-02T09:55:36;94867.09;;;4.59;91.67
27643;BME280;15053;48.618;10.024;2023-02-02T09:58:13;94858.59;;;4.59;92.37
27643;BME280;15053;48.618;10.024;2023-02-02T10:01:05;94866.81;;;4.56;93.18
27643;BME280;15053;48.618;10.024;2023-02-02T10:03:38;94882.19;;;4.51;93.33
27643;BME280;15053;48.618;10.024;2023-02-02T10:09:13;94868.03;;;4.53;93.88
27643;BME280;15053;48.618;10.024;2023-02-02T10:11:53;94865.16;;;4.50;94.20
27643;BME280;15053;48.618;10.024;2023-02-02T10:14:27;94861.66;;;4.56;93.83
27643;BME280;15053;48.618;10.024;2023-02-02T10:16:59;94895.94;;;4.56;94.95
27643;BME280;15053;48.618;10.024;2023-02-02T10:19:32;94865.31;;;4.60;94.76
27643;BME280;15053;48.618;10.024;2023-02-02T10:22:03;94859.28;;;4.54;94.20
27643;BME280;15053;48.618;10.024;2023-02-02T10:24:32;94865.00;;;4.56;94.88
27643;BME280;15053;48.618;10.024;2023-02-02T10:27:03;94879.47;;;4.57;95.28
27643;BME280;15053;48.618;10.024;2023-02-02T10:29:55;94865.00;;;4.56;95.26
27643;BME280;15053;48.618;10.024;2023-02-02T10:32:26;94871.72;;;4.57;94.81
27643;BME280;15053;48.618;10.024;2023-02-02T10:35:07;94875.56;;;4.55;95.71
27643;BME280;15053;48.618;10.024;2023-02-02T10:38:57;94869.16;;;4.57;95.51
27643;BME280;15053;48.618;10.024;2023-02-02T10:43:53;94860.31;;;4.53;95.68
27643;BME280;15053;48.618;10.024;2023-02-02T10:46:30;94870.63;;;4.53;95.21
27643;BME280;15053;48.618;10.024;2023-02-02T10:49:13;94879.72;;;4.56;96.21
27643;BME280;15053;48.618;10.024;2023-02-02T10:51:40;94876.88;;;4.57;95.50
27643;BME280;15053;48.618;10.024;2023-02-02T10:54:45;94869.63;;;4.54;95.51
27643;BME280;15053;48.618;10.024;2023-02-02T11:00:42;94880.19;;;4.53;96.33
27643;BME280;15053;48.618;10.024;2023-02-02T11:03:09;94869.47;;;4.44;96.67
27643;BME280;15053;48.618;10.024;2023-02-02T11:05:36;94860.00;;;4.50;96.34
27643;BME280;15053;48.618;10.024;2023-02-02T11:08:37;94896.66;;;4.52;95.87
27643;BME280;15053;48.618;10.024;2023-02-02T11:14:03;94879.22;;;4.59;96.35
27643;BME280;15053;48.618;10.024;2023-02-02T11:16:42;94882.97;;;4.51;95.93
27643;BME280;15053;48.618;10.024;2023-02-02T11:21:48;94901.75;;;4.63;96.38
27643;BME280;15053;48.618;10.024;2023-02-02T11:24:23;94900.97;;;4.63;96.10
27643;BME280;15053;48.618;10.024;2023-02-02T11:26:54;94889.06;;;4.62;96.51
27643;BME280;15053;48.618;10.024;2023-02-02T11:29:32;94899.16;;;4.63;95.98
27643;BME280;15053;48.618;10.024;2023-02-02T11:32:32;94891.44;;;4.63;96.21
27643;BME280;15053;48.618;10.024;2023-02-02T11:37:56;94892.13;;;4.59;96.84
27643;BME280;15053;48.618;10.024;2023-02-02T11:42:57;94894.41;;;4.55;96.26
27643;BME280;15053;48.618;10.024;2023-02-02T11:45:38;94911.19;;;4.58;96.00
27643;BME280;15053;48.618;10.024;2023-02-02T11:48:13;94908.84;;;4.56;97.08
27643;BME280;15053;48.618;10.024;2023-02-02T11:50:51;94920.72;;;4.57;96.03
27643;BME280;15053;48.618;10.024;2023-02-02T11:53:25;94893.28;;;4.51;96.82
27643;BME280;15053;48.618;10.024;2023-02-02T11:55:53;94901.81;;;4.52;96.44
27643;BME280;15053;48.618;10.024;2023-02-02T11:58:28;94926.81;;;4.51;96.77
27643;BME280;15053;48.618;10.024;2023-02-02T12:00:56;94913.84;;;4.46;96.60
27643;BME280;15053;48.618;10.024;2023-02-02T12:03:26;94937.75;;;4.42;96.03
27643;BME280;15053;48.618;10.024;2023-02-02T12:05:53;94912.63;;;4.37;96.19
27643;BME280;15053;48.618;10.024;2023-02-02T12:08:19;94904.91;;;4.37;95.78
27643;BME280;15053;48.618;10.024;2023-02-02T12:11:01;94904.34;;;4.35;96.99
27643;BME280;15053;48.618;10.024;2023-02-02T12:14:10;94899.44;;;4.34;96.98
27643;BME280;15053;48.618;10.024;2023-02-02T12:16:47;94900.22;;;4.34;96.96
27643;BME280;15053;48.618;10.024;2023-02-02T12:19:32;94903.81;;;4.33;97.56
27643;BME280;15053;48.618;10.024;2023-02-02T12:22:24;94888.56;;;4.32;97.38
27643;BME280;15053;48.618;10.024;2023-02-02T12:27:47;94885.78;;;4.33;96.60
27643;BME280;15053;48.618;10.024;2023-02-02T12:33:12;94882.50;;;4.38;96.61
27643;BME280;15053;48.618;10.024;2023-02-02T12:35:59;94881.41;;;4.34;96.19
27643;BME280;15053;48.618;10.024;2023-02-02T12:44:17;94899.00;;;4.37;97.00
27643;BME280;15053;48.618;10.024;2023-02-02T12:52:53;94892.47;;;4.34;95.89
27643;BME280;15053;48.618;10.024;2023-02-02T12:58:18;94895.53;;;4.31;96.52
27643;BME280;15053;48.618;10.024;2023-02-02T13:03:52;94907.84;;;4.29;97.40
27643;BME280;15053;48.618;10.024;2023-02-02T13:06:47;94891.38;;;4.30;96.84
27643;BME280;15053;48.618;10.024;2023-02-02T13:09:27;94893.88;;;4.25;96.45
27643;BME280;15053;48.618;10.024;2023-02-02T13:12:07;94903.94;;;4.27;96.39
27643;BME280;15053;48.618;10.024;2023-02-02T13:14:57;94919.88;;;4.24;97.19
27643;BME280;15053;48.618;10.024;2023-02-02T13:17:28;94901.03;;;4.23;96.76
27643;BME280;15053;48.618;10.024;2023-02-02T13:19:59;94914.97;;;4.22;96.46
27643;BME280;15053;48.618;10.024;2023-02-02T13:22:33;94916.75;;;4.22;96.57
27643;BME280;15053;48.618;10.024;2023-02-02T13:25:04;94920.13;;;4.22;97.38
27643;BME280;15053;48.618;10.024;2023-02-02T13:27:34;94904.41;;;4.24;97.06
27643;BME280;15053;48.618;10.024;2023-02-02T13:30:04;94920.13;;;4.22;96.41
27643;BME280;15053;48.618;10.024;2023-02-02T13:32:41;94920.56;;;4.19;97.34
27643;BME280;15053;48.618;10.024;2023-02-02T13:35:22;94912.84;;;4.19;97.21
27643;BME280;15053;48.618;10.024;2023-02-02T13:38:22;94922.91;;;4.21;97.73
27643;BME280;15053;48.618;10.024;2023-02-02T13:40:50;94918.78;;;4.20;97.52
27643;BME280;15053;48.618;10.024;2023-02-02T13:43:26;94932.47;;;4.20;97.80
27643;BME280;15053;48.618;10.024;2023-02-02T13:51:58;94959.69;;;4.16;97.57
27643;BME280;15053;48.618;10.024;2023-02-02T14:00:21;94945.72;;;4.12;98.25
27643;BME280;15053;48.618;10.024;2023-02-02T14:03:00;94973.03;;;4.13;98.50
27643;BME280;15053;48.618;10.024;2023-02-02T14:05:34;94975.06;;;4.11;98.37
27643;BME280;15053;48.618;10.024;2023-02-02T14:08:20;94976.63;;;4.12;98.65
27643;BME280;15053;48.618;10.024;2023-02-02T14:13:43;94967.09;;;4.12;98.35
27643;BME280;15053;48.618;10.024;2023-02-02T14:19:03;94972.94;;;4.08;98.87
27643;BME280;15053;48.618;10.024;2023-02-02T14:24:01;94970.81;;;4.05;99.22
27643;BME280;15053;48.618;10.024;2023-02-02T14:26:43;94971.16;;;4.08;99.23
27643;BME280;15053;48.618;10.024;2023-02-02T14:45:32;94975.59;;;4.25;99.74
27643;BME280;15053;48.618;10.024;2023-02-02T14:55:49;94992.47;;;4.32;99.95
27643;BME280;15053;48.618;10.024;2023-02-02T14:58:26;94979.38;;;4.34;99.98
27643;BME280;15053;48.618;10.024;2023-02-02T15:01:20;94993.59;;;4.36;99.60
27643;BME280;15053;48.618;10.024;2023-02-02T15:06:34;94989.53;;;4.40;99.99
27643;BME280;15053;48.618;10.024;2023-02-02T15:14:52;95000.38;;;4.42;99.65
27643;BME280;15053;48.618;10.024;2023-02-02T15:20:29;95026.75;;;4.44;99.46
27643;BME280;15053;48.618;10.024;2023-02-02T15:23:02;95008.13;;;4.42;99.30